createdAt,value
2023-04-24T00:00:16.395Z,9.19
2023-04-24T00:00:51.494Z,9.19
2023-04-24T00:01:18.433Z,9.19
2023-04-24T00:01:49.455Z,9.19
2023-04-24T00:02:19.569Z,9.14
2023-04-24T00:02:51.277Z,9.14
2023-04-24T00:03:21.550Z,9.14
2023-04-24T00:03:53.323Z,9.14
2023-04-24T00:04:23.761Z,9.14
2023-04-24T00:04:55.217Z,9.14
2023-04-24T00:05:25.929Z,9.14
2023-04-24T00:05:57.188Z,9.14
2023-04-24T00:06:28.477Z,9.14
2023-04-24T00:06:59.237Z,9.14
2023-04-24T00:07:29.557Z,9.14
2023-04-24T00:08:01.284Z,9.14
2023-04-24T00:08:31.414Z,9.14
2023-04-24T00:09:03.682Z,9.14
2023-04-24T00:09:33.405Z,9.14
2023-04-24T00:10:06.325Z,9.31
2023-04-24T00:10:35.755Z,9.31
2023-04-24T00:11:07.279Z,9.31
2023-04-24T00:11:38.639Z,9.31
2023-04-24T00:12:09.443Z,9.20
2023-04-24T00:12:39.446Z,9.20
2023-04-24T00:13:11.144Z,9.20
2023-04-24T00:13:41.449Z,9.20
2023-04-24T00:14:13.130Z,9.20
2023-04-24T00:14:43.424Z,9.20
2023-04-24T00:15:16.094Z,9.20
2023-04-24T00:15:45.997Z,9.20
2023-04-24T00:16:17.381Z,9.20
2023-04-24T00:16:48.474Z,9.37
2023-04-24T00:17:18.443Z,9.37
2023-04-24T00:17:50.213Z,9.37
2023-04-24T00:18:20.456Z,9.26
2023-04-24T00:18:52.135Z,9.26
2023-04-24T00:19:22.468Z,9.26
2023-04-24T00:19:54.083Z,9.26
2023-04-24T00:20:24.943Z,9.26
2023-04-24T00:20:56.119Z,9.26
2023-04-24T00:21:26.432Z,9.26
2023-04-24T00:21:59.314Z,9.42
2023-04-24T00:22:29.238Z,9.42
2023-04-24T00:23:00.156Z,9.42
2023-04-24T00:23:30.444Z,9.30
2023-04-24T00:24:02.128Z,9.30
2023-04-24T00:24:32.460Z,9.30
2023-04-24T00:25:05.377Z,9.30
2023-04-24T00:25:34.906Z,9.30
2023-04-24T00:26:06.142Z,9.30
2023-04-24T00:26:36.622Z,9.30
2023-04-24T00:27:09.164Z,9.30
2023-04-24T00:27:38.467Z,9.30
2023-04-24T00:28:10.118Z,9.30
2023-04-24T00:28:40.719Z,9.30
2023-04-24T00:29:12.769Z,9.14
2023-04-24T00:29:42.785Z,9.30
2023-04-24T00:30:15.417Z,9.30
2023-04-24T00:30:44.694Z,9.30
2023-04-24T00:31:16.122Z,9.30
2023-04-24T00:31:46.732Z,9.30
2023-04-24T00:32:19.656Z,9.30
2023-04-24T00:32:48.718Z,9.30
2023-04-24T00:33:19.774Z,9.30
2023-04-24T00:33:51.117Z,9.30
2023-04-24T00:34:21.446Z,9.30
2023-04-24T00:34:53.128Z,9.30
2023-04-24T00:35:23.868Z,9.30
2023-04-24T00:35:55.703Z,9.30
2023-04-24T00:36:25.517Z,9.30
2023-04-24T00:36:57.182Z,9.30
2023-04-24T00:37:28.399Z,9.30
2023-04-24T00:37:59.140Z,9.30
2023-04-24T00:38:29.444Z,9.45
2023-04-24T00:39:01.688Z,9.35
2023-04-24T00:39:31.403Z,9.35
2023-04-24T00:40:03.875Z,9.35
2023-04-24T00:40:37.702Z,9.35
2023-04-24T00:41:05.206Z,9.35
2023-04-24T00:41:35.395Z,9.51
2023-04-24T00:42:07.120Z,9.51
2023-04-24T00:42:38.794Z,9.51
2023-04-24T00:43:10.561Z,9.51
2023-04-24T00:43:39.529Z,9.51
2023-04-24T00:44:11.141Z,9.51
2023-04-24T00:44:41.489Z,9.51
2023-04-24T00:45:15.427Z,9.67
2023-04-24T00:45:43.543Z,9.67
2023-04-24T00:46:15.288Z,9.67
2023-04-24T00:46:45.914Z,9.67
2023-04-24T00:47:17.240Z,9.62
2023-04-24T00:47:48.664Z,9.62
2023-04-24T00:48:19.222Z,9.62
2023-04-24T00:48:49.467Z,9.62
2023-04-24T00:49:21.657Z,9.51
2023-04-24T00:49:51.502Z,9.51
2023-04-24T00:50:23.670Z,9.51
2023-04-24T00:50:53.435Z,9.51
2023-04-24T00:51:25.133Z,9.51
2023-04-24T00:51:55.647Z,9.51
2023-04-24T00:52:27.455Z,9.40
2023-04-24T00:52:58.486Z,9.40
2023-04-24T00:53:29.508Z,9.40
2023-04-24T00:53:59.548Z,9.40
2023-04-24T00:54:31.181Z,9.40
2023-04-24T00:55:02.446Z,9.40
2023-04-24T00:55:33.174Z,9.40
2023-04-24T00:56:03.584Z,9.40
2023-04-24T00:56:35.155Z,9.40
2023-04-24T00:57:05.490Z,9.40
2023-04-24T00:57:37.139Z,9.40
2023-04-24T00:58:08.685Z,9.40
2023-04-24T00:58:39.192Z,9.56
2023-04-24T00:59:09.503Z,9.56
2023-04-24T00:59:41.598Z,9.44
2023-04-24T01:00:13.314Z,9.44
2023-04-24T01:00:49.523Z,9.44
2023-04-24T01:01:13.543Z,9.44
2023-04-24T01:01:45.290Z,9.44
2023-04-24T01:02:15.586Z,9.44
2023-04-24T01:02:47.993Z,9.44
2023-04-24T01:03:18.574Z,9.44
2023-04-24T01:03:49.523Z,9.33
2023-04-24T01:04:19.559Z,9.33
2023-04-24T01:04:51.156Z,9.33
2023-04-24T01:05:22.030Z,9.33
2023-04-24T01:05:53.155Z,9.33
2023-04-24T01:06:23.486Z,9.33
2023-04-24T01:06:55.233Z,9.33
2023-04-24T01:07:25.421Z,9.33
2023-04-24T01:07:57.185Z,9.33
2023-04-24T01:08:28.449Z,9.33
2023-04-24T01:08:59.187Z,9.33
2023-04-24T01:09:29.461Z,9.33
2023-04-24T01:10:02.231Z,9.33
2023-04-24T01:10:31.520Z,9.33
2023-04-24T01:11:03.248Z,9.33
2023-04-24T01:11:33.498Z,9.33
2023-04-24T01:12:05.262Z,9.28
2023-04-24T01:12:35.434Z,9.42
2023-04-24T01:13:07.115Z,9.42
2023-04-24T01:13:38.611Z,9.28
2023-04-24T01:14:09.690Z,9.28
2023-04-24T01:14:39.479Z,9.42
2023-04-24T01:15:12.044Z,9.28
2023-04-24T01:15:41.574Z,9.28
2023-04-24T01:16:13.793Z,9.28
2023-04-24T01:16:43.607Z,9.42
2023-04-24T01:17:15.292Z,9.42
2023-04-24T01:17:45.908Z,9.42
2023-04-24T01:18:16.923Z,9.42
2023-04-24T01:18:48.448Z,9.42
2023-04-24T01:19:19.760Z,9.42
2023-04-24T01:19:49.492Z,9.47
2023-04-24T01:20:21.691Z,9.47
2023-04-24T01:20:51.472Z,9.47
2023-04-24T01:21:23.124Z,9.47
2023-04-24T01:21:53.412Z,9.47
2023-04-24T01:22:25.081Z,9.47
2023-04-24T01:22:55.443Z,9.47
2023-04-24T01:23:27.160Z,9.42
2023-04-24T01:23:58.456Z,9.42
2023-04-24T01:24:29.495Z,9.42
2023-04-24T01:24:59.441Z,9.42
2023-04-24T01:25:32.400Z,9.42
2023-04-24T01:26:01.819Z,9.42
2023-04-24T01:26:33.136Z,9.42
2023-04-24T01:27:04.081Z,9.42
2023-04-24T01:27:35.949Z,9.42
2023-04-24T01:28:05.441Z,9.42
2023-04-24T01:28:37.191Z,9.42
2023-04-24T01:29:08.506Z,9.42
2023-04-24T01:29:39.639Z,9.42
2023-04-24T01:30:10.504Z,9.42
2023-04-24T01:30:41.193Z,9.42
2023-04-24T01:31:11.504Z,9.42
2023-04-24T01:31:43.259Z,9.42
2023-04-24T01:32:13.507Z,9.42
2023-04-24T01:32:45.504Z,9.42
2023-04-24T01:33:15.606Z,9.42
2023-04-24T01:33:47.140Z,9.42
2023-04-24T01:34:18.412Z,9.42
2023-04-24T01:34:49.444Z,9.42
2023-04-24T01:35:19.982Z,9.42
2023-04-24T01:35:51.161Z,9.42
2023-04-24T01:36:21.473Z,9.42
2023-04-24T01:36:53.183Z,9.42
2023-04-24T01:37:23.616Z,9.42
2023-04-24T01:37:55.141Z,9.42
2023-04-24T01:38:25.411Z,9.42
2023-04-24T01:38:57.171Z,9.42
2023-04-24T01:39:28.480Z,9.42
2023-04-24T01:39:59.206Z,9.42
2023-04-24T01:40:38.806Z,9.42
2023-04-24T01:41:01.260Z,9.42
2023-04-24T01:41:31.505Z,9.42
2023-04-24T01:42:03.227Z,9.42
2023-04-24T01:42:33.431Z,9.42
2023-04-24T01:43:05.922Z,9.42
2023-04-24T01:43:35.477Z,9.42
2023-04-24T01:44:07.145Z,9.58
2023-04-24T01:44:38.476Z,9.58
2023-04-24T01:45:10.724Z,9.58
2023-04-24T01:45:39.555Z,9.58
2023-04-24T01:46:11.140Z,9.58
2023-04-24T01:46:41.401Z,9.58
2023-04-24T01:47:13.117Z,9.58
2023-04-24T01:47:43.398Z,9.58
2023-04-24T01:48:15.218Z,9.58
2023-04-24T01:48:45.443Z,9.58
2023-04-24T01:49:17.105Z,9.58
2023-04-24T01:49:48.830Z,9.58
2023-04-24T01:50:19.748Z,9.58
2023-04-24T01:50:49.428Z,9.58
2023-04-24T01:51:21.070Z,9.58
2023-04-24T01:51:51.391Z,9.58
2023-04-24T01:52:23.119Z,9.58
2023-04-24T01:52:53.421Z,9.47
2023-04-24T01:53:25.110Z,9.47
2023-04-24T01:53:56.009Z,9.47
2023-04-24T01:54:27.151Z,9.47
2023-04-24T01:54:58.416Z,9.58
2023-04-24T01:55:29.945Z,9.58
2023-04-24T01:55:59.450Z,9.58
2023-04-24T01:56:31.564Z,9.58
2023-04-24T01:57:01.458Z,9.47
2023-04-24T01:57:33.130Z,9.58
2023-04-24T01:58:03.560Z,9.58
2023-04-24T01:58:35.167Z,9.47
2023-04-24T01:59:05.465Z,9.47
2023-04-24T01:59:37.135Z,9.47
2023-04-24T02:00:10.345Z,9.47
2023-04-24T02:00:55.200Z,9.47
2023-04-24T02:01:09.699Z,9.47
2023-04-24T02:01:41.257Z,9.47
2023-04-24T02:02:11.676Z,9.47
2023-04-24T02:02:45.685Z,9.47
2023-04-24T02:03:13.696Z,9.47
2023-04-24T02:03:45.610Z,9.47
2023-04-24T02:04:15.577Z,9.47
2023-04-24T02:04:47.474Z,9.47
2023-04-24T02:05:19.165Z,9.47
2023-04-24T02:05:49.426Z,9.58
2023-04-24T02:06:19.633Z,9.58
2023-04-24T02:06:51.101Z,9.47
2023-04-24T02:07:22.142Z,9.58
2023-04-24T02:07:53.180Z,9.47
2023-04-24T02:08:23.425Z,9.47
2023-04-24T02:08:55.161Z,9.47
2023-04-24T02:09:25.615Z,9.47
2023-04-24T02:09:57.523Z,9.47
2023-04-24T02:10:28.954Z,9.47
2023-04-24T02:10:59.164Z,9.47
2023-04-24T02:11:29.460Z,9.47
2023-04-24T02:12:01.310Z,9.47
2023-04-24T02:12:31.459Z,9.47
2023-04-24T02:13:03.156Z,9.47
2023-04-24T02:13:33.874Z,9.47
2023-04-24T02:14:05.228Z,9.47
2023-04-24T02:14:35.472Z,9.47
2023-04-24T02:15:08.041Z,9.47
2023-04-24T02:15:38.556Z,9.47
2023-04-24T02:16:09.496Z,9.47
2023-04-24T02:16:39.705Z,9.47
2023-04-24T02:17:10.428Z,9.47
2023-04-24T02:17:42.172Z,9.47
2023-04-24T02:18:12.402Z,9.47
2023-04-24T02:18:44.099Z,9.47
2023-04-24T02:19:14.600Z,9.47
2023-04-24T02:19:46.102Z,9.47
2023-04-24T02:20:17.009Z,9.47
2023-04-24T02:20:49.100Z,9.47
2023-04-24T02:21:18.397Z,9.47
2023-04-24T02:21:50.107Z,9.47
2023-04-24T02:22:20.420Z,9.47
2023-04-24T02:22:52.092Z,9.47
2023-04-24T02:23:22.406Z,9.47
2023-04-24T02:23:54.075Z,9.47
2023-04-24T02:24:24.383Z,9.47
2023-04-24T02:24:56.087Z,9.47
2023-04-24T02:25:26.918Z,9.47
2023-04-24T02:25:59.504Z,9.47
2023-04-24T02:26:28.690Z,9.47
2023-04-24T02:27:00.533Z,9.47
2023-04-24T02:27:30.927Z,9.47
2023-04-24T02:28:02.103Z,9.47
2023-04-24T02:28:32.448Z,9.47
2023-04-24T02:29:04.259Z,9.47
2023-04-24T02:29:34.370Z,9.47
2023-04-24T02:30:07.519Z,9.47
2023-04-24T02:30:36.527Z,9.47
2023-04-24T02:31:09.083Z,9.47
2023-04-24T02:31:38.535Z,9.47
2023-04-24T02:32:10.094Z,9.47
2023-04-24T02:32:40.433Z,9.47
2023-04-24T02:33:12.101Z,9.47
2023-04-24T02:33:42.431Z,9.47
2023-04-24T02:34:14.118Z,9.47
2023-04-24T02:34:44.594Z,9.47
2023-04-24T02:35:16.639Z,9.47
2023-04-24T02:35:46.498Z,9.47
2023-04-24T02:36:19.176Z,9.47
2023-04-24T02:36:48.716Z,9.47
2023-04-24T02:37:20.366Z,9.47
2023-04-24T02:37:50.533Z,9.47
2023-04-24T02:38:22.128Z,9.47
2023-04-24T02:38:52.460Z,9.47
2023-04-24T02:39:24.129Z,9.47
2023-04-24T02:39:54.402Z,9.47
2023-04-24T02:40:30.993Z,9.47
2023-04-24T02:40:57.042Z,9.47
2023-04-24T02:41:29.343Z,9.47
2023-04-24T02:41:58.503Z,9.47
2023-04-24T02:42:30.170Z,9.47
2023-04-24T02:43:00.447Z,9.47
2023-04-24T02:43:32.579Z,9.47
2023-04-24T02:44:02.466Z,9.47
2023-04-24T02:44:34.094Z,9.47
2023-04-24T02:45:05.865Z,9.47
2023-04-24T02:45:36.979Z,9.47
2023-04-24T02:46:06.487Z,9.47
2023-04-24T02:46:39.149Z,9.47
2023-04-24T02:47:08.717Z,9.47
2023-04-24T02:47:40.161Z,9.47
2023-04-24T02:48:10.419Z,9.47
2023-04-24T02:48:42.467Z,9.47
2023-04-24T02:49:12.461Z,9.47
2023-04-24T02:49:44.303Z,9.47
2023-04-24T02:50:15.618Z,9.47
2023-04-24T02:50:46.338Z,9.47
2023-04-24T02:51:16.481Z,9.47
2023-04-24T02:51:49.106Z,9.47
2023-04-24T02:52:18.419Z,9.47
2023-04-24T02:52:50.092Z,9.47
2023-04-24T02:53:20.381Z,9.47
2023-04-24T02:53:52.124Z,9.47
2023-04-24T02:54:22.939Z,9.47
2023-04-24T02:54:54.111Z,9.47
2023-04-24T02:55:24.875Z,9.47
2023-04-24T02:55:56.092Z,9.47
2023-04-24T02:56:26.416Z,9.47
2023-04-24T02:56:59.086Z,9.47
2023-04-24T02:57:28.694Z,9.47
2023-04-24T02:58:00.090Z,9.47
2023-04-24T02:58:30.409Z,9.47
2023-04-24T02:59:02.090Z,9.47
2023-04-24T02:59:32.424Z,9.47
2023-04-24T03:00:05.086Z,9.47
2023-04-24T03:00:35.070Z,9.47
2023-04-24T03:01:06.380Z,9.47
2023-04-24T03:01:36.585Z,9.47
2023-04-24T03:02:09.206Z,9.47
2023-04-24T03:02:38.636Z,9.47
2023-04-24T03:03:10.480Z,9.47
2023-04-24T03:03:40.561Z,9.47
2023-04-24T03:04:12.485Z,9.47
2023-04-24T03:04:42.812Z,9.47
2023-04-24T03:05:15.022Z,9.47
2023-04-24T03:05:44.673Z,9.47
2023-04-24T03:06:16.359Z,9.47
2023-04-24T03:06:46.772Z,9.47
2023-04-24T03:07:19.613Z,9.47
2023-04-24T03:07:49.306Z,9.47
2023-04-24T03:08:20.364Z,9.47
2023-04-24T03:08:50.553Z,9.47
2023-04-24T03:09:22.224Z,9.47
2023-04-24T03:09:52.617Z,9.47
2023-04-24T03:10:25.219Z,9.47
2023-04-24T03:10:54.474Z,9.47
2023-04-24T03:11:26.159Z,9.47
2023-04-24T03:11:56.441Z,9.47
2023-04-24T03:12:29.112Z,9.47
2023-04-24T03:12:58.433Z,9.47
2023-04-24T03:13:30.665Z,9.47
2023-04-24T03:14:00.781Z,9.47
2023-04-24T03:14:32.310Z,9.47
2023-04-24T03:15:03.480Z,9.47
2023-04-24T03:15:34.435Z,9.47
2023-04-24T03:16:04.567Z,9.47
2023-04-24T03:16:35.617Z,9.47
2023-04-24T03:17:06.417Z,9.47
2023-04-24T03:17:40.080Z,9.47
2023-04-24T03:18:09.028Z,9.47
2023-04-24T03:18:39.762Z,9.47
2023-04-24T03:19:11.239Z,9.47
2023-04-24T03:19:41.546Z,9.47
2023-04-24T03:20:13.594Z,9.47
2023-04-24T03:20:46.177Z,9.47
2023-04-24T03:21:15.406Z,9.47
2023-04-24T03:21:45.603Z,9.47
2023-04-24T03:22:17.198Z,9.47
2023-04-24T03:22:48.407Z,9.47
2023-04-24T03:23:19.225Z,9.47
2023-04-24T03:23:49.471Z,9.47
2023-04-24T03:24:21.153Z,9.47
2023-04-24T03:24:51.440Z,9.36
2023-04-24T03:25:23.689Z,9.36
2023-04-24T03:25:53.451Z,9.36
2023-04-24T03:26:25.099Z,9.36
2023-04-24T03:26:55.541Z,9.36
2023-04-24T03:27:27.126Z,9.36
2023-04-24T03:27:58.403Z,9.36
2023-04-24T03:28:29.480Z,9.36
2023-04-24T03:28:59.564Z,9.36
2023-04-24T03:29:31.109Z,9.36
2023-04-24T03:30:02.729Z,9.36
2023-04-24T03:30:33.785Z,9.36
2023-04-24T03:31:03.852Z,9.36
2023-04-24T03:31:35.209Z,9.36
2023-04-24T03:32:05.440Z,9.36
2023-04-24T03:32:37.130Z,9.36
2023-04-24T03:33:08.634Z,9.47
2023-04-24T03:33:39.139Z,9.36
2023-04-24T03:34:09.555Z,9.36
2023-04-24T03:34:41.278Z,9.36
2023-04-24T03:35:11.996Z,9.36
2023-04-24T03:35:43.147Z,9.36
2023-04-24T03:36:13.406Z,9.36
2023-04-24T03:36:45.484Z,9.36
2023-04-24T03:37:15.573Z,9.36
2023-04-24T03:37:47.324Z,9.36
2023-04-24T03:38:18.469Z,9.36
2023-04-24T03:38:49.538Z,9.36
2023-04-24T03:39:19.449Z,9.36
2023-04-24T03:39:51.095Z,9.36
2023-04-24T03:40:21.921Z,9.36
2023-04-24T03:40:53.304Z,9.36
2023-04-24T03:41:23.961Z,9.36
2023-04-24T03:41:55.176Z,9.36
2023-04-24T03:42:25.508Z,9.36
2023-04-24T03:42:57.163Z,9.36
2023-04-24T03:43:28.470Z,9.36
2023-04-24T03:43:59.125Z,9.36
2023-04-24T03:44:29.450Z,9.36
2023-04-24T03:45:02.627Z,9.36
2023-04-24T03:45:31.496Z,9.36
2023-04-24T03:46:03.122Z,9.36
2023-04-24T03:46:33.426Z,9.36
2023-04-24T03:47:05.125Z,9.36
2023-04-24T03:47:35.513Z,9.36
2023-04-24T03:48:07.430Z,9.36
2023-04-24T03:48:38.619Z,9.36
2023-04-24T03:49:09.367Z,9.36
2023-04-24T03:49:39.386Z,9.36
2023-04-24T03:50:13.008Z,9.36
2023-04-24T03:50:41.521Z,9.36
2023-04-24T03:51:13.325Z,9.36
2023-04-24T03:51:43.592Z,9.36
2023-04-24T03:52:15.255Z,9.36
2023-04-24T03:52:45.504Z,9.36
2023-04-24T03:53:17.177Z,9.36
2023-04-24T03:53:48.446Z,9.36
2023-04-24T03:54:19.293Z,9.36
2023-04-24T03:54:50.062Z,9.36
2023-04-24T03:55:21.612Z,9.36
2023-04-24T03:55:51.410Z,9.36
2023-04-24T03:56:23.160Z,9.36
2023-04-24T03:56:53.481Z,9.36
2023-04-24T03:57:25.143Z,9.36
2023-04-24T03:57:55.418Z,9.36
2023-04-24T03:58:27.176Z,9.36
2023-04-24T03:58:58.466Z,9.36
2023-04-24T03:59:29.405Z,9.36
2023-04-24T03:59:59.395Z,9.36
2023-04-24T04:00:31.991Z,9.36
2023-04-24T04:01:01.436Z,9.36
2023-04-24T04:01:33.301Z,9.36
2023-04-24T04:02:03.553Z,9.36
2023-04-24T04:02:36.122Z,9.36
2023-04-24T04:03:05.594Z,9.36
2023-04-24T04:03:37.555Z,9.36
2023-04-24T04:04:09.295Z,9.36
2023-04-24T04:04:39.441Z,9.36
2023-04-24T04:05:09.908Z,9.24
2023-04-24T04:05:41.193Z,9.24
2023-04-24T04:06:11.416Z,9.24
2023-04-24T04:06:43.123Z,9.24
2023-04-24T04:07:13.391Z,9.24
2023-04-24T04:07:45.141Z,9.24
2023-04-24T04:08:15.856Z,9.36
2023-04-24T04:08:47.171Z,9.36
2023-04-24T04:09:18.749Z,9.36
2023-04-24T04:09:49.480Z,9.36
2023-04-24T04:10:20.024Z,9.36
2023-04-24T04:10:51.177Z,9.36
2023-04-24T04:11:21.462Z,9.36
2023-04-24T04:11:53.138Z,9.36
2023-04-24T04:12:23.496Z,9.36
2023-04-24T04:12:55.186Z,9.36
2023-04-24T04:13:25.433Z,9.36
2023-04-24T04:13:57.601Z,9.36
2023-04-24T04:14:28.492Z,9.24
2023-04-24T04:14:59.326Z,9.24
2023-04-24T04:15:30.379Z,9.24
2023-04-24T04:16:01.328Z,9.24
2023-04-24T04:16:31.448Z,9.24
2023-04-24T04:17:02.388Z,9.24
2023-04-24T04:17:33.374Z,9.24
2023-04-24T04:18:05.118Z,9.24
2023-04-24T04:18:35.359Z,9.24
2023-04-24T04:19:07.318Z,9.24
2023-04-24T04:19:38.387Z,9.24
2023-04-24T04:20:10.741Z,9.24
2023-04-24T04:20:39.641Z,9.24
2023-04-24T04:21:11.252Z,9.24
2023-04-24T04:21:42.130Z,9.24
2023-04-24T04:22:13.219Z,9.24
2023-04-24T04:22:44.534Z,9.24
2023-04-24T04:23:15.353Z,9.24
2023-04-24T04:23:45.527Z,9.36
2023-04-24T04:24:17.237Z,9.24
2023-04-24T04:24:48.673Z,9.36
2023-04-24T04:25:19.925Z,9.36
2023-04-24T04:25:49.551Z,9.24
2023-04-24T04:26:21.252Z,9.24
2023-04-24T04:26:51.557Z,9.24
2023-04-24T04:27:23.260Z,9.24
2023-04-24T04:27:53.684Z,9.24
2023-04-24T04:28:25.478Z,9.24
2023-04-24T04:28:55.642Z,9.24
2023-04-24T04:29:27.346Z,9.24
2023-04-24T04:29:58.568Z,9.24
2023-04-24T04:30:30.550Z,9.24
2023-04-24T04:30:59.655Z,9.24
2023-04-24T04:31:31.406Z,9.24
2023-04-24T04:32:01.621Z,9.24
2023-04-24T04:32:33.343Z,9.24
2023-04-24T04:33:03.832Z,9.24
2023-04-24T04:33:35.343Z,9.24
2023-04-24T04:34:05.587Z,9.24
2023-04-24T04:34:38.206Z,9.24
2023-04-24T04:35:09.194Z,9.24
2023-04-24T04:35:39.762Z,9.24
2023-04-24T04:36:10.098Z,9.24
2023-04-24T04:36:41.359Z,9.24
2023-04-24T04:37:11.658Z,9.24
2023-04-24T04:37:43.296Z,9.13
2023-04-24T04:38:13.775Z,9.13
2023-04-24T04:38:45.468Z,9.13
2023-04-24T04:39:15.673Z,9.13
2023-04-24T04:39:47.301Z,9.13
2023-04-24T04:40:19.094Z,9.13
2023-04-24T04:40:49.774Z,9.13
2023-04-24T04:41:19.549Z,9.13
2023-04-24T04:41:51.553Z,9.13
2023-04-24T04:42:21.560Z,9.13
2023-04-24T04:42:53.273Z,9.13
2023-04-24T04:43:23.534Z,9.13
2023-04-24T04:43:56.027Z,9.13
2023-04-24T04:44:25.568Z,9.13
2023-04-24T04:44:57.284Z,9.13
2023-04-24T04:45:29.437Z,9.13
2023-04-24T04:45:59.294Z,9.08
2023-04-24T04:46:29.557Z,9.08
2023-04-24T04:47:01.598Z,9.08
2023-04-24T04:47:31.587Z,9.08
2023-04-24T04:48:03.306Z,9.08
2023-04-24T04:48:34.802Z,9.08
2023-04-24T04:49:05.284Z,9.08
2023-04-24T04:49:35.580Z,9.08
2023-04-24T04:50:07.791Z,9.08
2023-04-24T04:50:38.895Z,9.08
2023-04-24T04:51:10.237Z,9.08
2023-04-24T04:51:40.727Z,9.08
2023-04-24T04:52:11.324Z,9.08
2023-04-24T04:52:41.856Z,9.08
2023-04-24T04:53:13.349Z,9.08
2023-04-24T04:53:43.569Z,9.08
2023-04-24T04:54:15.536Z,9.08
2023-04-24T04:54:45.983Z,9.08
2023-04-24T04:55:18.616Z,9.08
2023-04-24T04:55:48.675Z,9.08
2023-04-24T04:56:19.298Z,9.08
2023-04-24T04:56:49.580Z,9.08
2023-04-24T04:57:21.417Z,9.08
2023-04-24T04:57:51.698Z,9.08
2023-04-24T04:58:23.309Z,9.08
2023-04-24T04:58:53.612Z,9.08
2023-04-24T04:59:25.287Z,9.08
2023-04-24T04:59:55.578Z,9.08
2023-04-24T05:00:29.315Z,9.08
2023-04-24T05:01:03.323Z,9.08
2023-04-24T05:01:29.615Z,9.08
2023-04-24T05:02:00.719Z,9.08
2023-04-24T05:02:31.506Z,8.97
2023-04-24T05:03:18.651Z,8.97
2023-04-24T05:03:33.480Z,8.97
2023-04-24T05:04:03.773Z,8.97
2023-04-24T05:04:35.630Z,8.97
2023-04-24T05:05:06.332Z,8.97
2023-04-24T05:05:37.289Z,8.97
2023-04-24T05:06:08.651Z,8.97
2023-04-24T05:06:39.393Z,8.97
2023-04-24T05:07:09.599Z,8.97
2023-04-24T05:07:41.259Z,8.97
2023-04-24T05:08:23.701Z,8.97
2023-04-24T05:08:44.103Z,8.97
2023-04-24T05:09:13.603Z,8.97
2023-04-24T05:09:45.563Z,8.97
2023-04-24T05:10:16.218Z,8.97
2023-04-24T05:10:47.385Z,8.97
2023-04-24T05:11:19.134Z,8.97
2023-04-24T05:11:49.812Z,8.97
2023-04-24T05:12:19.550Z,8.97
2023-04-24T05:12:51.262Z,8.86
2023-04-24T05:13:28.276Z,8.86
2023-04-24T05:13:53.232Z,8.86
2023-04-24T05:14:23.560Z,8.86
2023-04-24T05:14:55.244Z,8.86
2023-04-24T05:15:27.125Z,8.86
2023-04-24T05:15:57.362Z,8.86
2023-04-24T05:16:28.630Z,8.86
2023-04-24T05:16:58.597Z,8.86
2023-04-24T05:17:29.560Z,8.86
2023-04-24T05:18:01.873Z,8.86
2023-04-24T05:18:31.991Z,8.86
2023-04-24T05:19:03.352Z,8.86
2023-04-24T05:19:34.075Z,8.86
2023-04-24T05:20:06.336Z,8.86
2023-04-24T05:20:40.711Z,8.86
2023-04-24T05:21:07.263Z,8.86
2023-04-24T05:21:38.771Z,8.86
2023-04-24T05:22:10.209Z,8.86
2023-04-24T05:22:39.648Z,8.86
2023-04-24T05:23:11.316Z,8.86
2023-04-24T05:23:41.624Z,8.86
2023-04-24T05:24:13.247Z,8.86
2023-04-24T05:24:43.622Z,8.86
2023-04-24T05:25:15.865Z,8.86
2023-04-24T05:25:45.768Z,8.86
2023-04-24T05:26:17.430Z,8.86
2023-04-24T05:26:48.586Z,8.86
2023-04-24T05:27:19.386Z,8.86
2023-04-24T05:27:50.025Z,8.86
2023-04-24T05:28:21.512Z,8.86
2023-04-24T05:28:52.182Z,8.86
2023-04-24T05:29:23.401Z,8.86
2023-04-24T05:29:53.642Z,8.86
2023-04-24T05:30:26.280Z,8.86
2023-04-24T05:30:56.070Z,8.86
2023-04-24T05:31:27.403Z,8.86
2023-04-24T05:31:58.644Z,8.86
2023-04-24T05:32:29.577Z,8.86
2023-04-24T05:33:01.907Z,8.86
2023-04-24T05:33:31.273Z,8.86
2023-04-24T05:34:01.630Z,8.86
2023-04-24T05:34:33.266Z,8.86
2023-04-24T05:35:04.217Z,8.86
2023-04-24T05:35:36.860Z,8.86
2023-04-24T05:36:05.549Z,8.86
2023-04-24T05:36:36.627Z,8.86
2023-04-24T05:37:09.322Z,8.86
2023-04-24T05:37:38.659Z,8.86
2023-04-24T05:38:10.288Z,8.86
2023-04-24T05:38:40.555Z,8.86
2023-04-24T05:39:12.295Z,8.86
2023-04-24T05:39:43.284Z,8.86
2023-04-24T05:40:14.915Z,8.86
2023-04-24T05:40:44.725Z,8.86
2023-04-24T05:41:16.344Z,8.86
2023-04-24T05:41:46.575Z,8.86
2023-04-24T05:42:19.303Z,8.86
2023-04-24T05:42:48.878Z,8.86
2023-04-24T05:43:21.345Z,8.86
2023-04-24T05:43:50.592Z,8.86
2023-04-24T05:44:22.752Z,8.86
2023-04-24T05:44:53.668Z,8.86
2023-04-24T05:45:25.191Z,8.86
2023-04-24T05:45:54.732Z,8.86
2023-04-24T05:46:26.328Z,8.86
2023-04-24T05:46:56.593Z,8.86
2023-04-24T05:47:29.286Z,8.86
2023-04-24T05:47:58.731Z,8.86
2023-04-24T05:48:30.731Z,8.97
2023-04-24T05:49:01.373Z,8.97
2023-04-24T05:49:32.318Z,8.97
2023-04-24T05:50:03.495Z,8.97
2023-04-24T05:50:36.680Z,8.97
2023-04-24T05:51:04.581Z,8.97
2023-04-24T05:51:36.212Z,8.97
2023-04-24T05:52:06.561Z,8.97
2023-04-24T05:52:39.427Z,8.97
2023-04-24T05:53:09.197Z,8.97
2023-04-24T05:53:40.242Z,8.97
2023-04-24T05:54:10.537Z,8.97
2023-04-24T05:54:42.326Z,8.81
2023-04-24T05:55:13.179Z,8.81
2023-04-24T05:55:45.006Z,8.81
2023-04-24T05:56:14.711Z,8.97
2023-04-24T05:56:46.259Z,8.81
2023-04-24T05:57:16.634Z,8.81
2023-04-24T05:57:49.262Z,8.81
2023-04-24T05:58:18.525Z,8.81
2023-04-24T05:58:50.243Z,8.97
2023-04-24T05:59:20.567Z,8.97
2023-04-24T05:59:52.372Z,8.92
2023-04-24T06:00:24.432Z,8.92
2023-04-24T06:00:54.291Z,8.92
2023-04-24T06:01:24.554Z,8.92
2023-04-24T06:01:56.252Z,9.08
2023-04-24T06:02:26.858Z,9.08
2023-04-24T06:02:59.574Z,9.08
2023-04-24T06:03:29.261Z,9.08
2023-04-24T06:04:00.470Z,9.08
2023-04-24T06:04:30.784Z,9.08
2023-04-24T06:05:03.660Z,9.08
2023-04-24T06:05:32.698Z,8.97
2023-04-24T06:06:04.437Z,8.97
2023-04-24T06:06:34.953Z,8.97
2023-04-24T06:07:06.407Z,8.97
2023-04-24T06:07:36.602Z,8.97
2023-04-24T06:08:09.394Z,8.97
2023-04-24T06:08:38.694Z,8.97
2023-04-24T06:09:10.938Z,8.97
2023-04-24T06:09:40.682Z,8.97
2023-04-24T06:10:12.777Z,8.97
2023-04-24T06:10:42.581Z,8.97
2023-04-24T06:11:14.254Z,8.97
2023-04-24T06:11:53.469Z,8.97
2023-04-24T06:12:16.306Z,9.08
2023-04-24T06:12:46.579Z,9.08
2023-04-24T06:13:19.649Z,9.08
2023-04-24T06:13:54.465Z,9.08
2023-04-24T06:14:20.350Z,9.08
2023-04-24T06:14:50.618Z,9.08
2023-04-24T06:15:23.509Z,9.08
2023-04-24T06:15:53.399Z,9.08
2023-04-24T06:16:24.254Z,9.08
2023-04-24T06:16:54.680Z,9.08
2023-04-24T06:17:25.674Z,9.08
2023-04-24T06:17:57.394Z,8.97
2023-04-24T06:18:29.226Z,8.97
2023-04-24T06:19:02.239Z,8.97
2023-04-24T06:19:29.477Z,8.97
2023-04-24T06:20:01.701Z,8.97
2023-04-24T06:20:41.327Z,8.97
2023-04-24T06:21:02.576Z,8.97
2023-04-24T06:21:34.676Z,8.97
2023-04-24T06:22:04.583Z,8.97
2023-04-24T06:22:36.884Z,8.97
2023-04-24T06:23:06.519Z,8.97
2023-04-24T06:23:39.290Z,8.97
2023-04-24T06:24:08.979Z,8.97
2023-04-24T06:24:40.393Z,8.97
2023-04-24T06:25:11.057Z,8.97
2023-04-24T06:25:42.270Z,8.97
2023-04-24T06:26:12.551Z,8.97
2023-04-24T06:26:44.201Z,8.97
2023-04-24T06:27:15.864Z,8.97
2023-04-24T06:27:46.235Z,8.97
2023-04-24T06:28:16.546Z,8.97
2023-04-24T06:28:49.247Z,8.97
2023-04-24T06:29:19.197Z,8.97
2023-04-24T06:29:50.251Z,8.97
2023-04-24T06:30:22.045Z,8.97
2023-04-24T06:30:52.287Z,8.97
2023-04-24T06:31:22.634Z,8.97
2023-04-24T06:31:54.294Z,8.97
2023-04-24T06:32:24.795Z,8.97
2023-04-24T06:33:00.767Z,8.97
2023-04-24T06:33:27.214Z,8.97
2023-04-24T06:33:59.215Z,8.97
2023-04-24T06:34:28.883Z,8.97
2023-04-24T06:35:00.345Z,8.97
2023-04-24T06:35:32.899Z,8.97
2023-04-24T06:36:02.912Z,8.97
2023-04-24T06:36:32.551Z,8.97
2023-04-24T06:37:04.368Z,8.97
2023-04-24T06:37:34.553Z,8.97
2023-04-24T06:38:06.245Z,8.97
2023-04-24T06:38:36.523Z,8.97
2023-04-24T06:39:11.012Z,8.97
2023-04-24T06:39:38.602Z,8.97
2023-04-24T06:40:10.852Z,8.97
2023-04-24T06:40:43.911Z,8.97
2023-04-24T06:41:11.644Z,8.97
2023-04-24T06:41:43.297Z,8.97
2023-04-24T06:42:13.647Z,8.97
2023-04-24T06:42:46.394Z,8.97
2023-04-24T06:43:15.669Z,8.97
2023-04-24T06:43:47.260Z,8.97
2023-04-24T06:44:18.597Z,8.97
2023-04-24T06:44:49.568Z,8.97
2023-04-24T06:45:20.499Z,8.97
2023-04-24T06:45:51.341Z,8.97
2023-04-24T06:46:22.182Z,8.97
2023-04-24T06:46:53.495Z,8.97
2023-04-24T06:47:23.901Z,8.97
2023-04-24T06:47:55.400Z,8.97
2023-04-24T06:48:25.591Z,8.97
2023-04-24T06:48:58.328Z,8.97
2023-04-24T06:49:29.118Z,8.97
2023-04-24T06:49:59.287Z,8.97
2023-04-24T06:50:30.198Z,8.97
2023-04-24T06:51:01.508Z,8.97
2023-04-24T06:51:31.640Z,8.97
2023-04-24T06:52:03.212Z,8.97
2023-04-24T06:52:33.612Z,8.97